sensor_id;sensor_type;location;lat;lon;timestamp;temperature;humidity
35607;DHT22;21729;58.392;15.656;2024-01-15T00:00:13;-1.10;1.00
35607;DHT22;21729;58.392;15.656;2024-01-15T00:02:41;-1.40;1.00
35607;DHT22;21729;58.392;15.656;2024-01-15T00:05:08;-1.30;1.00
35607;DHT22;21729;58.392;15.656;2024-01-15T00:07:35;-1.30;1.00
35607;DHT22;21729;58.392;15.656;2024-01-15T00:10:02;-1.30;1.00
35607;DHT22;21729;58.392;15.656;2024-01-15T00:12:29;-1.30;1.00
35607;DHT22;21729;58.392;15.656;2024-01-15T00:14:58;-1.40;1.00
35607;DHT22;21729;58.392;15.656;2024-01-15T00:17:25;-1.60;1.00
35607;DHT22;21729;58.392;15.656;2024-01-15T00:19:52;-1.70;1.00
35607;DHT22;21729;58.392;15.656;2024-01-15T00:22:19;-1.70;1.00
35607;DHT22;21729;58.392;15.656;2024-01-15T00:24:46;-1.80;99.90
35607;DHT22;21729;58.392;15.656;2024-01-15T00:27:13;-2.10;1.00
35607;DHT22;21729;58.392;15.656;2024-01-15T00:29:40;-2.20;1.00
35607;DHT22;21729;58.392;15.656;2024-01-15T00:32:08;-2.20;1.00
35607;DHT22;21729;58.392;15.656;2024-01-15T00:34:35;-2.30;1.00
35607;DHT22;21729;58.392;15.656;2024-01-15T00:37:03;-2.40;1.00
35607;DHT22;21729;58.392;15.656;2024-01-15T00:39:32;-2.40;1.00
35607;DHT22;21729;58.392;15.656;2024-01-15T00:41:59;-2.10;1.00
35607;DHT22;21729;58.392;15.656;2024-01-15T00:44:27;-2.50;1.00
35607;DHT22;21729;58.392;15.656;2024-01-15T00:46:54;-2.40;1.00
35607;DHT22;21729;58.392;15.656;2024-01-15T00:49:22;-2.60;1.00
35607;DHT22;21729;58.392;15.656;2024-01-15T00:51:49;-2.60;1.00
35607;DHT22;21729;58.392;15.656;2024-01-15T00:54:17;-2.60;1.00
35607;DHT22;21729;58.392;15.656;2024-01-15T00:56:44;-2.60;1.00
35607;DHT22;21729;58.392;15.656;2024-01-15T00:59:11;-2.60;1.40
35607;DHT22;21729;58.392;15.656;2024-01-15T01:01:40;-2.80;1.00
35607;DHT22;21729;58.392;15.656;2024-01-15T01:04:08;-2.60;1.00
35607;DHT22;21729;58.392;15.656;2024-01-15T01:06:37;-2.90;1.00
35607;DHT22;21729;58.392;15.656;2024-01-15T01:09:04;-2.90;1.00
35607;DHT22;21729;58.392;15.656;2024-01-15T01:11:31;-3.00;1.00
35607;DHT22;21729;58.392;15.656;2024-01-15T01:13:59;-2.90;1.00
35607;DHT22;21729;58.392;15.656;2024-01-15T01:16:26;-3.00;1.00
35607;DHT22;21729;58.392;15.656;2024-01-15T01:18:53;-3.00;1.00
35607;DHT22;21729;58.392;15.656;2024-01-15T01:21:20;-3.10;1.00
35607;DHT22;21729;58.392;15.656;2024-01-15T01:23:48;-3.10;1.00
35607;DHT22;21729;58.392;15.656;2024-01-15T01:26:16;-3.10;1.00
35607;DHT22;21729;58.392;15.656;2024-01-15T01:28:43;-3.20;1.00
35607;DHT22;21729;58.392;15.656;2024-01-15T01:31:10;-3.20;1.00
35607;DHT22;21729;58.392;15.656;2024-01-15T01:33:38;-3.20;1.00
35607;DHT22;21729;58.392;15.656;2024-01-15T01:36:07;-3.00;1.00
35607;DHT22;21729;58.392;15.656;2024-01-15T01:38:35;-3.30;1.00
35607;DHT22;21729;58.392;15.656;2024-01-15T01:41:03;-3.30;1.00
35607;DHT22;21729;58.392;15.656;2024-01-15T01:43:30;-3.30;1.00
35607;DHT22;21729;58.392;15.656;2024-01-15T01:45:58;-3.20;1.00
35607;DHT22;21729;58.392;15.656;2024-01-15T01:48:27;-3.40;1.00
35607;DHT22;21729;58.392;15.656;2024-01-15T01:50:59;-3.50;99.90
35607;DHT22;21729;58.392;15.656;2024-01-15T01:53:27;-3.30;1.00
35607;DHT22;21729;58.392;15.656;2024-01-15T01:55:56;-3.40;1.00
35607;DHT22;21729;58.392;15.656;2024-01-15T01:58:25;-3.40;1.00
35607;DHT22;21729;58.392;15.656;2024-01-15T02:00:53;-3.50;1.00
35607;DHT22;21729;58.392;15.656;2024-01-15T02:03:20;-3.50;1.00
35607;DHT22;21729;58.392;15.656;2024-01-15T02:05:49;-3.50;1.00
35607;DHT22;21729;58.392;15.656;2024-01-15T02:08:16;-3.60;99.90
35607;DHT22;21729;58.392;15.656;2024-01-15T02:10:43;-3.60;1.00
35607;DHT22;21729;58.392;15.656;2024-01-15T02:13:10;-3.70;1.00
35607;DHT22;21729;58.392;15.656;2024-01-15T02:15:39;-3.70;1.00
35607;DHT22;21729;58.392;15.656;2024-01-15T02:18:07;-3.70;1.00
35607;DHT22;21729;58.392;15.656;2024-01-15T02:20:34;-3.80;99.90
35607;DHT22;21729;58.392;15.656;2024-01-15T02:23:09;-3.80;99.90
35607;DHT22;21729;58.392;15.656;2024-01-15T02:25:38;-3.80;99.90
35607;DHT22;21729;58.392;15.656;2024-01-15T02:28:05;-3.50;1.00
35607;DHT22;21729;58.392;15.656;2024-01-15T02:30:34;-3.80;99.90
35607;DHT22;21729;58.392;15.656;2024-01-15T02:33:03;-3.90;99.90
35607;DHT22;21729;58.392;15.656;2024-01-15T02:35:33;-4.00;99.90
35607;DHT22;21729;58.392;15.656;2024-01-15T02:38:02;-3.60;99.90
35607;DHT22;21729;58.392;15.656;2024-01-15T02:40:31;-4.10;99.90
35607;DHT22;21729;58.392;15.656;2024-01-15T02:42:58;-4.10;99.90
35607;DHT22;21729;58.392;15.656;2024-01-15T02:45:25;-4.20;99.90
35607;DHT22;21729;58.392;15.656;2024-01-15T02:47:52;-4.20;99.90
35607;DHT22;21729;58.392;15.656;2024-01-15T02:50:19;-4.20;99.90
35607;DHT22;21729;58.392;15.656;2024-01-15T02:52:46;-4.20;99.90
35607;DHT22;21729;58.392;15.656;2024-01-15T02:55:13;-4.30;99.90
35607;DHT22;21729;58.392;15.656;2024-01-15T02:57:42;-4.20;99.90
35607;DHT22;21729;58.392;15.656;2024-01-15T03:00:09;-4.30;99.90
35607;DHT22;21729;58.392;15.656;2024-01-15T03:02:37;-4.30;99.90
35607;DHT22;21729;58.392;15.656;2024-01-15T03:05:06;-4.30;99.90
35607;DHT22;21729;58.392;15.656;2024-01-15T03:07:33;-4.30;99.90
35607;DHT22;21729;58.392;15.656;2024-01-15T03:10:00;-4.30;99.90
35607;DHT22;21729;58.392;15.656;2024-01-15T03:12:27;-4.40;99.90
35607;DHT22;21729;58.392;15.656;2024-01-15T03:14:56;-4.40;99.90
35607;DHT22;21729;58.392;15.656;2024-01-15T03:17:23;-4.30;99.90
35607;DHT22;21729;58.392;15.656;2024-01-15T03:19:50;-4.40;99.90
35607;DHT22;21729;58.392;15.656;2024-01-15T03:22:17;-4.40;99.90
35607;DHT22;21729;58.392;15.656;2024-01-15T03:24:44;-4.40;99.90
35607;DHT22;21729;58.392;15.656;2024-01-15T03:27:11;-4.40;99.90
35607;DHT22;21729;58.392;15.656;2024-01-15T03:29:40;-4.40;99.90
35607;DHT22;21729;58.392;15.656;2024-01-15T03:32:08;-4.40;99.90
35607;DHT22;21729;58.392;15.656;2024-01-15T03:34:35;-4.40;99.90
35607;DHT22;21729;58.392;15.656;2024-01-15T03:37:02;-4.50;99.90
35607;DHT22;21729;58.392;15.656;2024-01-15T03:39:30;-4.50;99.90
35607;DHT22;21729;58.392;15.656;2024-01-15T03:41:57;-4.50;99.90
35607;DHT22;21729;58.392;15.656;2024-01-15T03:44:24;-4.60;99.90
35607;DHT22;21729;58.392;15.656;2024-01-15T03:46:51;-4.60;99.90
35607;DHT22;21729;58.392;15.656;2024-01-15T03:49:19;-4.60;99.90
35607;DHT22;21729;58.392;15.656;2024-01-15T03:51:47;-4.60;99.90
35607;DHT22;21729;58.392;15.656;2024-01-15T03:54:14;-4.60;99.90
35607;DHT22;21729;58.392;15.656;2024-01-15T03:56:41;-4.70;99.90
35607;DHT22;21729;58.392;15.656;2024-01-15T03:59:08;-4.70;99.90
35607;DHT22;21729;58.392;15.656;2024-01-15T04:01:35;-4.70;99.90
35607;DHT22;21729;58.392;15.656;2024-01-15T04:04:02;-4.70;99.90
35607;DHT22;21729;58.392;15.656;2024-01-15T04:06:30;-4.60;99.90
35607;DHT22;21729;58.392;15.656;2024-01-15T04:08:59;-4.80;99.90
35607;DHT22;21729;58.392;15.656;2024-01-15T04:11:26;-4.80;99.90
35607;DHT22;21729;58.392;15.656;2024-01-15T04:13:53;-4.80;99.90
35607;DHT22;21729;58.392;15.656;2024-01-15T04:16:20;-4.80;99.90
35607;DHT22;21729;58.392;15.656;2024-01-15T04:18:47;-4.80;99.90
35607;DHT22;21729;58.392;15.656;2024-01-15T04:21:14;-4.90;99.90
35607;DHT22;21729;58.392;15.656;2024-01-15T04:23:43;-4.90;99.90
35607;DHT22;21729;58.392;15.656;2024-01-15T04:26:10;-4.90;99.90
35607;DHT22;21729;58.392;15.656;2024-01-15T04:28:37;-4.90;99.90
35607;DHT22;21729;58.392;15.656;2024-01-15T04:31:04;-4.90;99.90
35607;DHT22;21729;58.392;15.656;2024-01-15T04:33:31;-4.90;99.90
35607;DHT22;21729;58.392;15.656;2024-01-15T04:36:02;-4.90;99.90
35607;DHT22;21729;58.392;15.656;2024-01-15T04:38:29;-4.90;99.90
35607;DHT22;21729;58.392;15.656;2024-01-15T04:40:57;-5.00;99.90
35607;DHT22;21729;58.392;15.656;2024-01-15T04:43:24;-4.80;99.90
35607;DHT22;21729;58.392;15.656;2024-01-15T04:45:51;-5.00;99.90
35607;DHT22;21729;58.392;15.656;2024-01-15T04:48:18;-4.90;99.90
35607;DHT22;21729;58.392;15.656;2024-01-15T04:50:45;-5.00;99.90
35607;DHT22;21729;58.392;15.656;2024-01-15T04:53:13;-5.00;99.90
35607;DHT22;21729;58.392;15.656;2024-01-15T04:55:40;-5.00;99.90
35607;DHT22;21729;58.392;15.656;2024-01-15T04:58:09;-5.00;99.90
35607;DHT22;21729;58.392;15.656;2024-01-15T05:00:36;-4.90;99.90
35607;DHT22;21729;58.392;15.656;2024-01-15T05:03:03;-4.90;99.90
35607;DHT22;21729;58.392;15.656;2024-01-15T05:05:30;-5.00;99.90
35607;DHT22;21729;58.392;15.656;2024-01-15T05:07:57;-4.90;99.90
35607;DHT22;21729;58.392;15.656;2024-01-15T05:10:24;-5.10;99.90
35607;DHT22;21729;58.392;15.656;2024-01-15T05:12:52;-4.90;99.90
35607;DHT22;21729;58.392;15.656;2024-01-15T05:15:20;-4.90;99.90
35607;DHT22;21729;58.392;15.656;2024-01-15T05:17:47;-4.90;99.90
35607;DHT22;21729;58.392;15.656;2024-01-15T05:20:14;-4.90;99.90
35607;DHT22;21729;58.392;15.656;2024-01-15T05:22:41;-5.00;99.90
35607;DHT22;21729;58.392;15.656;2024-01-15T05:25:08;-4.90;99.90
35607;DHT22;21729;58.392;15.656;2024-01-15T05:27:35;-5.00;99.90
35607;DHT22;21729;58.392;15.656;2024-01-15T05:30:03;-5.00;99.90
35607;DHT22;21729;58.392;15.656;2024-01-15T05:32:32;-5.10;99.90
35607;DHT22;21729;58.392;15.656;2024-01-15T05:34:59;-5.10;99.90
35607;DHT22;21729;58.392;15.656;2024-01-15T05:37:26;-4.90;99.90
35607;DHT22;21729;58.392;15.656;2024-01-15T05:39:53;-5.10;99.90
35607;DHT22;21729;58.392;15.656;2024-01-15T05:42:20;-5.10;99.90
35607;DHT22;21729;58.392;15.656;2024-01-15T05:44:47;-5.00;99.90
35607;DHT22;21729;58.392;15.656;2024-01-15T05:47:14;-5.20;99.90
35607;DHT22;21729;58.392;15.656;2024-01-15T05:49:43;-5.20;99.90
35607;DHT22;21729;58.392;15.656;2024-01-15T05:52:10;-5.20;99.90
35607;DHT22;21729;58.392;15.656;2024-01-15T05:54:37;-5.20;99.90
35607;DHT22;21729;58.392;15.656;2024-01-15T05:57:04;-5.20;99.90
35607;DHT22;21729;58.392;15.656;2024-01-15T05:59:31;-5.30;99.90
35607;DHT22;21729;58.392;15.656;2024-01-15T06:01:59;-5.10;99.90
35607;DHT22;21729;58.392;15.656;2024-01-15T06:04:26;-5.30;99.90
35607;DHT22;21729;58.392;15.656;2024-01-15T06:06:55;-5.30;99.90
35607;DHT22;21729;58.392;15.656;2024-01-15T06:09:22;-5.30;99.90
35607;DHT22;21729;58.392;15.656;2024-01-15T06:11:49;-5.20;99.90
35607;DHT22;21729;58.392;15.656;2024-01-15T06:14:16;-5.40;99.90
35607;DHT22;21729;58.392;15.656;2024-01-15T06:16:43;-5.40;99.90
35607;DHT22;21729;58.392;15.656;2024-01-15T06:19:11;-5.10;99.90
35607;DHT22;21729;58.392;15.656;2024-01-15T06:21:38;-5.40;99.90
35607;DHT22;21729;58.392;15.656;2024-01-15T06:24:07;-5.30;99.90
35607;DHT22;21729;58.392;15.656;2024-01-15T06:26:35;-5.50;99.90
35607;DHT22;21729;58.392;15.656;2024-01-15T06:29:02;-5.50;99.90
35607;DHT22;21729;58.392;15.656;2024-01-15T06:31:29;-5.50;99.90
35607;DHT22;21729;58.392;15.656;2024-01-15T06:33:56;-5.50;99.90
35607;DHT22;21729;58.392;15.656;2024-01-15T06:36:23;-5.50;99.90
35607;DHT22;21729;58.392;15.656;2024-01-15T06:38:50;-5.10;99.90
35607;DHT22;21729;58.392;15.656;2024-01-15T06:41:19;-5.40;99.90
35607;DHT22;21729;58.392;15.656;2024-01-15T06:43:46;-5.50;99.90
35607;DHT22;21729;58.392;15.656;2024-01-15T06:46:13;-5.60;99.90
35607;DHT22;21729;58.392;15.656;2024-01-15T06:48:46;-5.60;99.90
35607;DHT22;21729;58.392;15.656;2024-01-15T06:51:13;-5.60;99.90
35607;DHT22;21729;58.392;15.656;2024-01-15T06:53:40;-5.50;99.90
35607;DHT22;21729;58.392;15.656;2024-01-15T06:56:07;-5.60;99.90
35607;DHT22;21729;58.392;15.656;2024-01-15T06:58:35;-5.60;99.90
35607;DHT22;21729;58.392;15.656;2024-01-15T07:01:02;-5.60;99.90
35607;DHT22;21729;58.392;15.656;2024-01-15T07:03:30;-5.60;99.90
35607;DHT22;21729;58.392;15.656;2024-01-15T07:05:57;-5.50;99.90
35607;DHT22;21729;58.392;15.656;2024-01-15T07:08:25;-5.60;99.90
35607;DHT22;21729;58.392;15.656;2024-01-15T07:10:52;-5.60;99.90
35607;DHT22;21729;58.392;15.656;2024-01-15T07:13:19;-5.60;99.90
35607;DHT22;21729;58.392;15.656;2024-01-15T07:15:47;-5.50;99.90
35607;DHT22;21729;58.392;15.656;2024-01-15T07:18:14;-5.70;99.90
35607;DHT22;21729;58.392;15.656;2024-01-15T07:20:42;-5.70;99.90
35607;DHT22;21729;58.392;15.656;2024-01-15T07:23:09;-5.70;99.90
35607;DHT22;21729;58.392;15.656;2024-01-15T07:25:36;-5.70;99.90
35607;DHT22;21729;58.392;15.656;2024-01-15T07:28:04;-5.60;99.90
35607;DHT22;21729;58.392;15.656;2024-01-15T07:30:31;-5.70;99.90
35607;DHT22;21729;58.392;15.656;2024-01-15T07:32:59;-5.80;99.90
35607;DHT22;21729;58.392;15.656;2024-01-15T07:35:27;-5.70;99.90
35607;DHT22;21729;58.392;15.656;2024-01-15T07:37:54;-5.80;99.90
35607;DHT22;21729;58.392;15.656;2024-01-15T07:40:21;-5.80;32.00
35607;DHT22;21729;58.392;15.656;2024-01-15T07:42:48;-5.70;99.90
35607;DHT22;21729;58.392;15.656;2024-01-15T07:45:15;-5.80;98.20
35607;DHT22;21729;58.392;15.656;2024-01-15T07:47:42;-5.70;99.90
35607;DHT22;21729;58.392;15.656;2024-01-15T07:50:11;-5.80;70.80
35607;DHT22;21729;58.392;15.656;2024-01-15T07:52:39;-5.70;99.90
35607;DHT22;21729;58.392;15.656;2024-01-15T07:55:07;-5.80;99.90
35607;DHT22;21729;58.392;15.656;2024-01-15T07:57:34;-5.80;92.00
35607;DHT22;21729;58.392;15.656;2024-01-15T08:00:02;-5.80;99.90
35607;DHT22;21729;58.392;15.656;2024-01-15T08:02:31;-5.80;2.80
35607;DHT22;21729;58.392;15.656;2024-01-15T08:04:58;-5.80;32.60
35607;DHT22;21729;58.392;15.656;2024-01-15T08:07:27;-5.70;1.00
35607;DHT22;21729;58.392;15.656;2024-01-15T08:09:54;-5.80;22.50
35607;DHT22;21729;58.392;15.656;2024-01-15T08:12:21;-5.70;45.60
35607;DHT22;21729;58.392;15.656;2024-01-15T08:14:48;-5.60;98.00
35607;DHT22;21729;58.392;15.656;2024-01-15T08:17:15;-5.70;1.00
35607;DHT22;21729;58.392;15.656;2024-01-15T08:19:42;-5.80;1.00
35607;DHT22;21729;58.392;15.656;2024-01-15T08:22:09;-5.80;1.00
35607;DHT22;21729;58.392;15.656;2024-01-15T08:24:38;-5.80;1.00
35607;DHT22;21729;58.392;15.656;2024-01-15T08:27:05;-5.80;1.00
35607;DHT22;21729;58.392;15.656;2024-01-15T08:29:32;-5.70;36.70
35607;DHT22;21729;58.392;15.656;2024-01-15T08:32:00;-5.70;79.20
35607;DHT22;21729;58.392;15.656;2024-01-15T08:34:27;-6.10;66.90
35607;DHT22;21729;58.392;15.656;2024-01-15T08:36:54;-5.80;1.00
35607;DHT22;21729;58.392;15.656;2024-01-15T08:39:21;-5.80;25.20
35607;DHT22;21729;58.392;15.656;2024-01-15T08:41:50;-5.80;33.00
35607;DHT22;21729;58.392;15.656;2024-01-15T08:44:17;-5.80;1.00
35607;DHT22;21729;58.392;15.656;2024-01-15T08:46:44;-5.70;1.00
35607;DHT22;21729;58.392;15.656;2024-01-15T08:49:11;-5.80;1.00
35607;DHT22;21729;58.392;15.656;2024-01-15T08:51:38;-5.70;1.00
35607;DHT22;21729;58.392;15.656;2024-01-15T08:54:05;-5.70;1.00
35607;DHT22;21729;58.392;15.656;2024-01-15T08:56:34;-5.50;99.90
35607;DHT22;21729;58.392;15.656;2024-01-15T08:59:02;-5.80;1.00
35607;DHT22;21729;58.392;15.656;2024-01-15T09:01:29;-5.80;1.00
35607;DHT22;21729;58.392;15.656;2024-01-15T09:03:56;-5.80;1.00
35607;DHT22;21729;58.392;15.656;2024-01-15T09:06:23;-5.70;1.00
35607;DHT22;21729;58.392;15.656;2024-01-15T09:08:50;-5.80;1.00
35607;DHT22;21729;58.392;15.656;2024-01-15T09:11:17;-5.80;1.00
35607;DHT22;21729;58.392;15.656;2024-01-15T09:13:44;-5.90;1.00
35607;DHT22;21729;58.392;15.656;2024-01-15T09:16:13;-5.90;99.90
35607;DHT22;21729;58.392;15.656;2024-01-15T09:18:40;-5.80;1.00
35607;DHT22;21729;58.392;15.656;2024-01-15T09:21:07;-5.90;1.00
35607;DHT22;21729;58.392;15.656;2024-01-15T09:23:34;-5.90;99.90
35607;DHT22;21729;58.392;15.656;2024-01-15T09:26:01;-5.60;99.90
35607;DHT22;21729;58.392;15.656;2024-01-15T09:28:28;-5.80;99.90
35607;DHT22;21729;58.392;15.656;2024-01-15T09:30:55;-5.70;99.90
35607;DHT22;21729;58.392;15.656;2024-01-15T09:33:24;-5.90;99.90
35607;DHT22;21729;58.392;15.656;2024-01-15T09:35:51;-5.90;99.90
35607;DHT22;21729;58.392;15.656;2024-01-15T09:38:19;-5.90;99.90
35607;DHT22;21729;58.392;15.656;2024-01-15T09:40:47;-5.90;99.90
35607;DHT22;21729;58.392;15.656;2024-01-15T09:43:14;-5.80;1.00
35607;DHT22;21729;58.392;15.656;2024-01-15T09:45:42;-5.80;99.90
35607;DHT22;21729;58.392;15.656;2024-01-15T09:48:09;-5.80;99.90
35607;DHT22;21729;58.392;15.656;2024-01-15T09:50:38;-5.70;99.90
35607;DHT22;21729;58.392;15.656;2024-01-15T09:53:05;-5.70;99.90
35607;DHT22;21729;58.392;15.656;2024-01-15T09:55:33;-5.80;99.90
35607;DHT22;21729;58.392;15.656;2024-01-15T09:58:00;-5.70;99.90
35607;DHT22;21729;58.392;15.656;2024-01-15T10:00:29;-5.80;99.90
35607;DHT22;21729;58.392;15.656;2024-01-15T10:02:57;-5.70;99.90
35607;DHT22;21729;58.392;15.656;2024-01-15T10:05:26;-5.60;99.90
35607;DHT22;21729;58.392;15.656;2024-01-15T10:07:56;-5.80;99.90
35607;DHT22;21729;58.392;15.656;2024-01-15T10:10:23;-5.80;99.90
35607;DHT22;21729;58.392;15.656;2024-01-15T10:12:50;-5.80;99.90
35607;DHT22;21729;58.392;15.656;2024-01-15T10:15:18;-5.70;99.90
35607;DHT22;21729;58.392;15.656;2024-01-15T10:17:45;-5.40;99.90
35607;DHT22;21729;58.392;15.656;2024-01-15T10:20:12;-5.60;99.90
35607;DHT22;21729;58.392;15.656;2024-01-15T10:22:41;-5.60;99.90
35607;DHT22;21729;58.392;15.656;2024-01-15T10:25:12;-5.60;99.90
35607;DHT22;21729;58.392;15.656;2024-01-15T10:27:39;-5.70;99.90
35607;DHT22;21729;58.392;15.656;2024-01-15T10:30:07;-5.60;99.90
35607;DHT22;21729;58.392;15.656;2024-01-15T10:32:35;-5.70;99.90
35607;DHT22;21729;58.392;15.656;2024-01-15T10:35:02;-5.70;99.90
35607;DHT22;21729;58.392;15.656;2024-01-15T10:37:33;-5.70;99.90
35607;DHT22;21729;58.392;15.656;2024-01-15T10:40:01;-5.60;99.90
35607;DHT22;21729;58.392;15.656;2024-01-15T10:42:32;-5.70;99.90
35607;DHT22;21729;58.392;15.656;2024-01-15T10:44:59;-5.60;99.90
35607;DHT22;21729;58.392;15.656;2024-01-15T10:47:26;-5.70;99.90
35607;DHT22;21729;58.392;15.656;2024-01-15T10:49:54;-5.80;99.90
35607;DHT22;21729;58.392;15.656;2024-01-15T10:52:21;-5.80;99.90
35607;DHT22;21729;58.392;15.656;2024-01-15T10:54:49;-5.50;99.90
35607;DHT22;21729;58.392;15.656;2024-01-15T10:57:17;-5.80;99.90
35607;DHT22;21729;58.392;15.656;2024-01-15T10:59:46;-5.70;99.90
35607;DHT22;21729;58.392;15.656;2024-01-15T11:02:14;-5.80;99.90
35607;DHT22;21729;58.392;15.656;2024-01-15T11:04:41;-5.50;99.90
35607;DHT22;21729;58.392;15.656;2024-01-15T11:07:08;-5.80;99.90
35607;DHT22;21729;58.392;15.656;2024-01-15T11:09:37;-5.90;99.90
35607;DHT22;21729;58.392;15.656;2024-01-15T11:12:09;-5.90;99.90
35607;DHT22;21729;58.392;15.656;2024-01-15T11:14:39;-5.90;99.90
35607;DHT22;21729;58.392;15.656;2024-01-15T11:17:11;-5.90;99.90
35607;DHT22;21729;58.392;15.656;2024-01-15T11:19:42;-5.90;99.90
35607;DHT22;21729;58.392;15.656;2024-01-15T11:22:10;-6.00;99.90
35607;DHT22;21729;58.392;15.656;2024-01-15T11:24:40;-5.70;99.90
35607;DHT22;21729;58.392;15.656;2024-01-15T11:27:07;-6.00;99.90
35607;DHT22;21729;58.392;15.656;2024-01-15T11:29:36;-6.00;99.90
35607;DHT22;21729;58.392;15.656;2024-01-15T11:32:05;-6.00;99.90
35607;DHT22;21729;58.392;15.656;2024-01-15T11:34:56;-6.30;99.90
35607;DHT22;21729;58.392;15.656;2024-01-15T11:37:25;-6.20;99.90
35607;DHT22;21729;58.392;15.656;2024-01-15T11:39:53;-6.30;99.90
35607;DHT22;21729;58.392;15.656;2024-01-15T11:42:21;-6.20;99.90
35607;DHT22;21729;58.392;15.656;2024-01-15T11:44:49;-6.30;99.90
35607;DHT22;21729;58.392;15.656;2024-01-15T11:50:10;-6.40;99.90
35607;DHT22;21729;58.392;15.656;2024-01-15T11:52:38;-6.30;99.90
35607;DHT22;21729;58.392;15.656;2024-01-15T11:55:11;-6.50;99.90
35607;DHT22;21729;58.392;15.656;2024-01-15T11:57:41;-6.50;99.90
35607;DHT22;21729;58.392;15.656;2024-01-15T12:00:10;-6.50;99.90
35607;DHT22;21729;58.392;15.656;2024-01-15T12:02:39;-6.40;99.90
35607;DHT22;21729;58.392;15.656;2024-01-15T12:05:07;-6.50;99.90
35607;DHT22;21729;58.392;15.656;2024-01-15T12:07:36;-6.60;99.90
35607;DHT22;21729;58.392;15.656;2024-01-15T12:10:08;-6.50;99.90
35607;DHT22;21729;58.392;15.656;2024-01-15T12:12:44;-6.70;99.90
35607;DHT22;21729;58.392;15.656;2024-01-15T12:15:14;-6.30;99.90
35607;DHT22;21729;58.392;15.656;2024-01-15T12:17:42;-6.70;99.90
35607;DHT22;21729;58.392;15.656;2024-01-15T12:20:10;-6.70;99.90
35607;DHT22;21729;58.392;15.656;2024-01-15T12:22:39;-6.70;99.90
35607;DHT22;21729;58.392;15.656;2024-01-15T12:25:06;-6.80;99.90
35607;DHT22;21729;58.392;15.656;2024-01-15T12:27:34;-6.70;99.90
35607;DHT22;21729;58.392;15.656;2024-01-15T12:30:01;-6.80;99.90
35607;DHT22;21729;58.392;15.656;2024-01-15T12:32:29;-6.70;99.90
35607;DHT22;21729;58.392;15.656;2024-01-15T12:34:56;-6.80;99.90
35607;DHT22;21729;58.392;15.656;2024-01-15T12:37:24;-6.70;99.90
35607;DHT22;21729;58.392;15.656;2024-01-15T12:39:53;-6.60;99.90
35607;DHT22;21729;58.392;15.656;2024-01-15T12:42:21;-6.80;99.90
35607;DHT22;21729;58.392;15.656;2024-01-15T12:44:48;-6.80;99.90
35607;DHT22;21729;58.392;15.656;2024-01-15T12:47:15;-6.80;99.90
35607;DHT22;21729;58.392;15.656;2024-01-15T12:49:46;-6.80;99.90
35607;DHT22;21729;58.392;15.656;2024-01-15T12:52:15;-6.80;99.90
35607;DHT22;21729;58.392;15.656;2024-01-15T12:54:42;-6.80;99.90
35607;DHT22;21729;58.392;15.656;2024-01-15T12:57:11;-6.80;99.90
35607;DHT22;21729;58.392;15.656;2024-01-15T12:59:38;-6.80;99.90
35607;DHT22;21729;58.392;15.656;2024-01-15T13:02:06;-6.90;99.90
35607;DHT22;21729;58.392;15.656;2024-01-15T13:04:33;-6.90;99.90
35607;DHT22;21729;58.392;15.656;2024-01-15T13:07:00;-6.90;99.90
35607;DHT22;21729;58.392;15.656;2024-01-15T13:09:27;-7.00;99.90
35607;DHT22;21729;58.392;15.656;2024-01-15T13:11:55;-7.00;99.90
35607;DHT22;21729;58.392;15.656;2024-01-15T13:14:24;-7.00;99.90
35607;DHT22;21729;58.392;15.656;2024-01-15T13:16:51;-7.00;99.90
35607;DHT22;21729;58.392;15.656;2024-01-15T13:19:19;-7.10;99.90
35607;DHT22;21729;58.392;15.656;2024-01-15T13:21:47;-7.10;99.90
35607;DHT22;21729;58.392;15.656;2024-01-15T13:24:15;-7.20;99.90
35607;DHT22;21729;58.392;15.656;2024-01-15T13:26:42;-7.20;99.90
35607;DHT22;21729;58.392;15.656;2024-01-15T13:29:10;-7.00;99.90
35607;DHT22;21729;58.392;15.656;2024-01-15T13:31:38;-7.30;99.90
35607;DHT22;21729;58.392;15.656;2024-01-15T13:34:05;-7.30;99.90
35607;DHT22;21729;58.392;15.656;2024-01-15T13:36:33;-7.40;99.90
35607;DHT22;21729;58.392;15.656;2024-01-15T13:39:00;-7.40;99.90
35607;DHT22;21729;58.392;15.656;2024-01-15T13:41:27;-7.40;99.90
35607;DHT22;21729;58.392;15.656;2024-01-15T13:43:55;-7.50;99.90
35607;DHT22;21729;58.392;15.656;2024-01-15T13:46:24;-7.50;99.90
35607;DHT22;21729;58.392;15.656;2024-01-15T13:48:53;-7.60;99.90
35607;DHT22;21729;58.392;15.656;2024-01-15T13:51:22;-7.60;99.90
35607;DHT22;21729;58.392;15.656;2024-01-15T13:53:49;-7.60;99.90
35607;DHT22;21729;58.392;15.656;2024-01-15T13:56:17;-7.70;99.90
35607;DHT22;21729;58.392;15.656;2024-01-15T13:58:44;-7.70;99.90
35607;DHT22;21729;58.392;15.656;2024-01-15T14:01:11;-7.70;99.90
35607;DHT22;21729;58.392;15.656;2024-01-15T14:03:38;-7.80;99.90
35607;DHT22;21729;58.392;15.656;2024-01-15T14:06:06;-7.80;99.90
35607;DHT22;21729;58.392;15.656;2024-01-15T14:08:36;-7.80;99.90
35607;DHT22;21729;58.392;15.656;2024-01-15T14:11:04;-7.90;99.90
35607;DHT22;21729;58.392;15.656;2024-01-15T14:13:31;-7.90;99.90
35607;DHT22;21729;58.392;15.656;2024-01-15T14:15:59;-8.00;99.90
35607;DHT22;21729;58.392;15.656;2024-01-15T14:18:26;-8.00;99.90
35607;DHT22;21729;58.392;15.656;2024-01-15T14:20:54;-8.10;99.90
35607;DHT22;21729;58.392;15.656;2024-01-15T14:23:22;-8.10;99.90
35607;DHT22;21729;58.392;15.656;2024-01-15T14:25:49;-8.10;99.90
35607;DHT22;21729;58.392;15.656;2024-01-15T14:28:16;-8.20;99.90
35607;DHT22;21729;58.392;15.656;2024-01-15T14:30:43;-8.20;99.90
35607;DHT22;21729;58.392;15.656;2024-01-15T14:33:10;-8.20;99.90
35607;DHT22;21729;58.392;15.656;2024-01-15T14:35:37;-8.20;99.90
35607;DHT22;21729;58.392;15.656;2024-01-15T14:38:04;-8.30;99.90
35607;DHT22;21729;58.392;15.656;2024-01-15T14:40:34;-8.30;99.90
35607;DHT22;21729;58.392;15.656;2024-01-15T14:43:03;-8.30;99.90
35607;DHT22;21729;58.392;15.656;2024-01-15T14:45:30;-8.30;99.90
35607;DHT22;21729;58.392;15.656;2024-01-15T14:47:57;-8.20;99.90
35607;DHT22;21729;58.392;15.656;2024-01-15T14:50:25;-8.30;99.90
35607;DHT22;21729;58.392;15.656;2024-01-15T14:52:52;-8.20;99.90
35607;DHT22;21729;58.392;15.656;2024-01-15T14:55:19;-8.30;99.90
35607;DHT22;21729;58.392;15.656;2024-01-15T14:57:50;-8.40;99.90
35607;DHT22;21729;58.392;15.656;2024-01-15T15:00:18;-8.40;99.90
35607;DHT22;21729;58.392;15.656;2024-01-15T15:02:45;-8.20;99.90
35607;DHT22;21729;58.392;15.656;2024-01-15T15:05:13;-8.60;99.90
35607;DHT22;21729;58.392;15.656;2024-01-15T15:07:42;-8.60;99.90
35607;DHT22;21729;58.392;15.656;2024-01-15T15:10:10;-8.70;99.90
35607;DHT22;21729;58.392;15.656;2024-01-15T15:12:38;-8.70;99.90
35607;DHT22;21729;58.392;15.656;2024-01-15T15:15:07;-8.80;99.90
35607;DHT22;21729;58.392;15.656;2024-01-15T15:17:36;-8.80;99.90
35607;DHT22;21729;58.392;15.656;2024-01-15T15:20:04;-8.80;99.90
35607;DHT22;21729;58.392;15.656;2024-01-15T15:22:32;-8.90;99.90
35607;DHT22;21729;58.392;15.656;2024-01-15T15:24:59;-8.60;99.90